createdAt,value
2019-04-05T00:00:45.631Z,12.45
2019-04-05T00:03:14.693Z,11.93
2019-04-05T00:05:43.763Z,11.75
2019-04-05T00:08:12.675Z,12.25
2019-04-05T00:10:41.767Z,12.43
2019-04-05T00:13:10.828Z,12.25
2019-04-05T00:15:39.818Z,13.13
2019-04-05T00:18:08.750Z,11.53
2019-04-05T00:20:37.814Z,11.65
2019-04-05T00:23:06.818Z,11.38
2019-04-05T00:25:36.039Z,11.12
2019-04-05T00:28:05.139Z,11.40
2019-04-05T00:30:34.208Z,11.73
2019-04-05T00:33:03.379Z,12.00
2019-04-05T00:35:32.343Z,11.22
2019-04-05T00:38:01.410Z,11.30
2019-04-05T00:40:31.014Z,10.55
2019-04-05T00:43:00.102Z,10.72
2019-04-05T00:45:29.266Z,11.40
2019-04-05T00:47:58.278Z,11.00
2019-04-05T00:50:27.417Z,11.63
2019-04-05T00:52:56.419Z,11.45
2019-04-05T00:55:25.471Z,10.95
2019-04-05T00:57:54.631Z,10.85
2019-04-05T01:00:23.756Z,11.15
2019-04-05T01:02:52.883Z,11.68
2019-04-05T01:05:21.884Z,12.10
2019-04-05T01:07:51.166Z,11.65
2019-04-05T01:10:20.235Z,11.05
2019-04-05T01:12:49.378Z,11.05
2019-04-05T01:15:18.418Z,11.60
2019-04-05T01:17:47.414Z,11.35
2019-04-05T01:20:16.574Z,11.30
2019-04-05T01:22:46.349Z,13.00
2019-04-05T01:25:15.775Z,12.35
2019-04-05T01:27:45.071Z,12.03
2019-04-05T01:30:15.118Z,11.65
2019-04-05T01:32:44.183Z,13.00
2019-04-05T01:35:13.250Z,11.97
2019-04-05T01:37:42.684Z,12.03
2019-04-05T01:40:12.230Z,11.15
2019-04-05T01:42:41.819Z,12.20
2019-04-05T01:45:11.293Z,12.10
2019-04-05T01:47:40.517Z,12.68
2019-04-05T01:50:10.092Z,12.25
2019-04-05T01:52:39.561Z,11.65
2019-04-05T01:55:08.660Z,12.50
2019-04-05T01:57:37.714Z,10.98
2019-04-05T02:00:09.789Z,11.90
2019-04-05T02:02:38.843Z,8.58
2019-04-05T02:05:08.793Z,12.43
2019-04-05T02:07:37.909Z,11.18
2019-04-05T02:10:07.983Z,12.43
2019-04-05T02:12:37.709Z,11.90
2019-04-05T02:15:08.558Z,11.83
2019-04-05T02:17:37.707Z,13.10
2019-04-05T02:20:07.096Z,11.73
2019-04-05T02:22:36.331Z,11.48
2019-04-05T02:25:06.001Z,11.43
2019-04-05T02:27:35.073Z,11.35
2019-04-05T02:30:04.306Z,11.50
2019-04-05T02:32:33.426Z,12.00
2019-04-05T02:35:02.422Z,12.63
2019-04-05T02:37:31.563Z,13.28
2019-04-05T02:40:00.499Z,11.80
2019-04-05T02:42:30.006Z,11.68
2019-04-05T02:44:59.645Z,12.28
2019-04-05T02:47:29.130Z,11.60
2019-04-05T02:49:58.617Z,11.55
2019-04-05T02:52:29.278Z,12.60
2019-04-05T02:54:58.853Z,11.30
2019-04-05T02:57:28.802Z,10.70
2019-04-05T02:59:58.867Z,12.53
2019-04-05T03:02:28.558Z,12.15
2019-04-05T03:04:57.710Z,12.35
2019-04-05T03:07:28.054Z,11.95
2019-04-05T03:09:59.230Z,13.20
2019-04-05T03:12:28.596Z,12.03
2019-04-05T03:15:00.040Z,12.95
2019-04-05T03:17:29.401Z,12.28
2019-04-05T03:20:00.238Z,13.05
2019-04-05T03:22:30.520Z,13.53
2019-04-05T03:25:01.043Z,11.97
2019-04-05T03:27:33.179Z,12.47
2019-04-05T03:30:03.345Z,13.35
2019-04-05T03:32:32.815Z,13.43
2019-04-05T03:35:02.289Z,13.35
2019-04-05T03:37:31.583Z,13.22
2019-04-05T03:40:01.372Z,13.35
2019-04-05T03:42:31.031Z,13.25
2019-04-05T03:45:00.205Z,12.93
2019-04-05T03:47:29.370Z,12.75
2019-04-05T03:49:58.811Z,12.88
2019-04-05T03:52:27.902Z,13.65
2019-04-05T03:54:56.984Z,13.18
2019-04-05T03:57:26.232Z,13.88
2019-04-05T03:59:55.776Z,13.93
2019-04-05T04:02:24.838Z,13.03
2019-04-05T04:04:54.740Z,13.22
2019-04-05T04:07:23.933Z,12.80
2019-04-05T04:09:53.756Z,13.68
2019-04-05T04:12:22.884Z,13.48
2019-04-05T04:14:52.079Z,14.63
2019-04-05T04:17:22.232Z,13.72
2019-04-05T04:19:51.378Z,14.35
2019-04-05T04:22:27.524Z,15.10
2019-04-05T04:24:56.962Z,14.45
2019-04-05T04:27:26.600Z,14.70
2019-04-05T04:29:55.974Z,13.40
2019-04-05T04:32:25.033Z,14.15
2019-04-05T04:34:54.945Z,14.00
2019-04-05T04:37:24.006Z,13.30
2019-04-05T04:39:53.577Z,14.18
2019-04-05T04:42:23.123Z,14.38
2019-04-05T04:44:53.162Z,15.28
2019-04-05T04:47:26.706Z,14.53
2019-04-05T04:49:56.254Z,15.53
2019-04-05T04:52:25.607Z,16.23
2019-04-05T04:54:54.679Z,15.65
2019-04-05T04:57:24.146Z,15.85
2019-04-05T04:59:53.506Z,15.83
2019-04-05T05:02:23.128Z,15.48
2019-04-05T05:04:52.334Z,16.25
2019-04-05T05:07:21.792Z,16.05
2019-04-05T05:09:50.942Z,15.85
2019-04-05T05:12:20.374Z,14.90
2019-04-05T05:14:49.594Z,15.93
2019-04-05T05:17:18.920Z,15.75
2019-04-05T05:19:48.335Z,16.95
2019-04-05T05:22:17.433Z,15.75
2019-04-05T05:24:46.565Z,16.62
2019-04-05T05:27:15.959Z,15.40
2019-04-05T05:29:45.040Z,14.78
2019-04-05T05:32:14.287Z,15.25
2019-04-05T05:34:43.662Z,15.80
2019-04-05T05:37:13.055Z,16.97
2019-04-05T05:39:42.251Z,16.12
2019-04-05T05:42:11.303Z,17.07
2019-04-05T05:44:40.383Z,17.55
2019-04-05T05:47:09.543Z,18.20
2019-04-05T05:49:38.671Z,17.32
2019-04-05T05:52:07.894Z,16.65
2019-04-05T05:54:36.877Z,18.20
2019-04-05T05:57:05.892Z,18.32
2019-04-05T05:59:35.026Z,18.05
2019-04-05T06:02:07.147Z,17.32
2019-04-05T06:04:34.939Z,16.73
2019-04-05T06:07:04.129Z,17.57
2019-04-05T06:09:33.245Z,17.30
2019-04-05T06:12:02.324Z,18.80
2019-04-05T06:14:31.385Z,17.07
2019-04-05T06:17:00.382Z,17.35
2019-04-05T06:19:29.448Z,16.73
2019-04-05T06:21:58.604Z,18.02
2019-04-05T06:24:27.586Z,18.77
2019-04-05T06:26:56.684Z,17.75
2019-04-05T06:29:25.774Z,18.75
2019-04-05T06:31:54.780Z,18.65
2019-04-05T06:34:23.789Z,18.23
2019-04-05T06:36:52.787Z,18.57
2019-04-05T06:39:21.896Z,18.77
2019-04-05T06:41:50.963Z,17.60
2019-04-05T06:44:20.058Z,18.27
2019-04-05T06:46:49.187Z,18.87
2019-04-05T06:49:18.302Z,19.23
2019-04-05T06:51:47.389Z,20.37
2019-04-05T06:54:16.438Z,18.70
2019-04-05T06:56:45.542Z,18.40
2019-04-05T06:59:14.662Z,19.10
2019-04-05T07:01:43.594Z,18.40
2019-04-05T07:04:12.725Z,18.85
2019-04-05T07:06:42.582Z,19.67
2019-04-05T07:09:11.631Z,21.15
2019-04-05T07:11:40.624Z,18.40
2019-04-05T07:14:09.772Z,18.85
2019-04-05T07:16:38.822Z,18.60
2019-04-05T07:19:07.802Z,19.52
2019-04-05T07:21:36.742Z,18.55
2019-04-05T07:24:05.796Z,19.15
2019-04-05T07:26:34.710Z,17.98
2019-04-05T07:29:03.963Z,17.23
2019-04-05T07:31:33.179Z,18.15
2019-04-05T07:34:04.203Z,18.20
2019-04-05T07:36:32.954Z,18.98
2019-04-05T07:39:01.934Z,18.10
2019-04-05T07:41:31.936Z,18.57
2019-04-05T07:44:01.062Z,19.40
2019-04-05T07:46:30.240Z,18.98
2019-04-05T07:48:59.308Z,18.10
2019-04-05T07:51:28.417Z,19.73
2019-04-05T07:53:57.543Z,18.55
2019-04-05T07:56:26.667Z,17.98
2019-04-05T07:58:55.735Z,16.77
2019-04-05T08:01:24.735Z,17.60
2019-04-05T08:03:53.810Z,16.32
2019-04-05T08:06:22.984Z,16.48
2019-04-05T08:09:18.522Z,16.50
2019-04-05T08:12:07.215Z,16.80
2019-04-05T08:14:39.126Z,16.95
2019-04-05T08:17:08.276Z,17.73
2019-04-05T08:19:37.446Z,17.20
2019-04-05T08:22:06.536Z,17.17
2019-04-05T08:24:35.590Z,16.65
2019-04-05T08:27:04.695Z,15.78
2019-04-05T08:29:33.611Z,17.20
2019-04-05T08:32:14.012Z,16.85
2019-04-05T08:34:33.553Z,15.72
2019-04-05T08:37:02.688Z,15.55
2019-04-05T08:39:31.851Z,16.32
2019-04-05T08:42:01.046Z,16.75
2019-04-05T08:44:30.200Z,16.75
2019-04-05T08:46:59.458Z,17.40
2019-04-05T08:49:28.406Z,16.02
2019-04-05T08:51:57.495Z,15.58
2019-04-05T08:54:32.456Z,14.85
2019-04-05T08:56:57.291Z,15.25
2019-04-05T08:59:26.401Z,13.60
2019-04-05T09:01:55.478Z,13.65
2019-04-05T09:04:24.406Z,14.35
2019-04-05T09:06:53.384Z,14.25
2019-04-05T09:09:22.458Z,14.15
2019-04-05T09:11:51.542Z,14.40
2019-04-05T09:14:21.059Z,13.93
2019-04-05T09:16:50.173Z,14.40
2019-04-05T09:19:23.922Z,14.33
2019-04-05T09:21:50.074Z,13.53
2019-04-05T09:24:19.189Z,14.58
2019-04-05T09:26:48.226Z,13.62
2019-04-05T09:29:17.294Z,12.90
2019-04-05T09:31:46.306Z,13.32
2019-04-05T09:34:15.299Z,13.10
2019-04-05T09:36:44.366Z,13.43
2019-04-05T09:39:15.666Z,12.90
2019-04-05T09:41:44.170Z,13.72
2019-04-05T09:44:13.181Z,12.15
2019-04-05T09:46:47.192Z,12.23
2019-04-05T09:49:13.074Z,13.55
2019-04-05T09:51:42.084Z,13.55
2019-04-05T09:54:11.250Z,12.55
2019-04-05T09:56:40.284Z,13.83
2019-04-05T09:59:09.280Z,13.18
2019-04-05T10:01:38.327Z,13.85
2019-04-05T10:04:07.344Z,12.23
2019-04-05T10:06:36.480Z,13.22
2019-04-05T10:09:07.954Z,13.28
2019-04-05T10:11:37.102Z,12.10
2019-04-05T10:14:06.336Z,12.68
2019-04-05T10:16:35.340Z,13.80
2019-04-05T10:19:04.422Z,14.87
2019-04-05T10:21:33.483Z,13.70
2019-04-05T10:24:02.484Z,14.75
2019-04-05T10:26:31.587Z,14.07
2019-04-05T10:29:00.511Z,13.65
2019-04-05T10:31:29.431Z,14.63
2019-04-05T10:33:58.580Z,13.65
2019-04-05T10:36:27.672Z,14.30
2019-04-05T10:38:56.746Z,14.07
2019-04-05T10:41:25.810Z,13.90
2019-04-05T10:43:54.874Z,14.93
2019-04-05T10:46:24.030Z,15.72
2019-04-05T10:48:53.148Z,14.07
2019-04-05T10:51:22.151Z,14.60
2019-04-05T10:53:51.259Z,14.45
2019-04-05T10:56:20.291Z,14.73
2019-04-05T10:58:49.267Z,16.05
2019-04-05T11:01:18.365Z,14.85
2019-04-05T11:03:47.608Z,14.23
2019-04-05T11:06:16.998Z,14.68
2019-04-05T11:08:46.094Z,14.78
2019-04-05T11:11:15.500Z,14.38
2019-04-05T11:13:45.101Z,14.40
2019-04-05T11:16:14.295Z,14.25
2019-04-05T11:18:45.090Z,13.90
2019-04-05T11:21:16.257Z,13.65
2019-04-05T11:23:45.616Z,13.85
2019-04-05T11:26:15.350Z,14.80
2019-04-05T11:28:45.409Z,13.88
2019-04-05T11:31:14.699Z,13.90
2019-04-05T11:33:43.814Z,14.60
2019-04-05T11:36:13.732Z,13.58
2019-04-05T11:39:05.929Z,14.50
2019-04-05T11:41:37.136Z,14.20
2019-04-05T11:44:06.504Z,14.53
2019-04-05T11:46:38.655Z,15.88
2019-04-05T11:49:09.385Z,15.48
2019-04-05T11:51:38.757Z,15.43
2019-04-05T11:54:18.591Z,14.95
2019-04-05T11:56:47.672Z,15.25
2019-04-05T11:59:16.825Z,15.43
2019-04-05T12:02:08.011Z,15.90
2019-04-05T12:04:37.280Z,14.18
2019-04-05T12:07:06.493Z,14.65
2019-04-05T12:09:35.685Z,15.68
2019-04-05T12:12:05.334Z,16.27
2019-04-05T12:14:36.525Z,15.50
2019-04-05T12:17:05.646Z,16.70
2019-04-05T12:19:38.035Z,17.15
2019-04-05T12:22:09.034Z,15.32
2019-04-05T12:24:37.359Z,17.50
2019-04-05T12:27:06.553Z,16.37
2019-04-05T12:29:35.740Z,15.80
2019-04-05T12:32:04.990Z,16.17
2019-04-05T12:34:35.030Z,15.03
2019-04-05T12:37:04.255Z,16.02
2019-04-05T12:39:36.411Z,16.87
2019-04-05T12:42:04.251Z,16.10
2019-04-05T12:44:33.570Z,14.05
2019-04-05T12:47:02.748Z,14.07
2019-04-05T12:49:31.901Z,15.93
2019-04-05T12:52:01.088Z,16.00
2019-04-05T12:54:30.274Z,15.90
2019-04-05T12:56:59.406Z,16.50
2019-04-05T12:59:28.651Z,15.85
2019-04-05T13:01:59.632Z,14.15
2019-04-05T13:04:29.267Z,14.68
2019-04-05T13:06:59.006Z,14.23
2019-04-05T13:09:28.415Z,14.33
2019-04-05T13:11:57.627Z,14.60
2019-04-05T13:14:27.039Z,15.43
2019-04-05T13:16:56.264Z,15.78
2019-04-05T13:19:25.445Z,14.53
2019-04-05T13:21:54.782Z,14.33
2019-04-05T13:24:24.039Z,15.40
2019-04-05T13:26:53.190Z,14.20
2019-04-05T13:29:22.423Z,13.60
2019-04-05T13:31:51.502Z,13.43
2019-04-05T13:34:20.625Z,14.78
2019-04-05T13:36:49.948Z,14.58
2019-04-05T13:39:18.968Z,14.43
2019-04-05T13:41:48.022Z,15.40
2019-04-05T13:44:17.376Z,14.87
2019-04-05T13:46:46.607Z,14.87
2019-04-05T13:49:15.810Z,15.05
2019-04-05T13:51:45.117Z,15.43
2019-04-05T13:54:14.297Z,14.30
2019-04-05T13:56:43.429Z,14.53
2019-04-05T13:59:12.630Z,14.83
2019-04-05T14:01:41.989Z,14.28
2019-04-05T14:04:11.131Z,14.47
2019-04-05T14:06:40.346Z,14.03
2019-04-05T14:09:10.467Z,14.10
2019-04-05T14:11:40.138Z,14.50
2019-04-05T14:14:11.829Z,14.70
2019-04-05T14:16:42.720Z,13.38
2019-04-05T14:19:11.134Z,14.95
2019-04-05T14:21:46.029Z,15.23
2019-04-05T14:24:11.461Z,15.30
2019-04-05T14:26:43.404Z,14.50
2019-04-05T14:29:11.604Z,14.40
2019-04-05T14:31:40.705Z,14.70
2019-04-05T14:34:09.969Z,13.75
2019-04-05T14:36:39.230Z,15.08
2019-04-05T14:39:10.005Z,16.67
2019-04-05T14:41:39.063Z,14.63
2019-04-05T14:44:08.246Z,15.78
2019-04-05T14:46:38.407Z,17.60
2019-04-05T14:49:07.867Z,15.40
2019-04-05T14:51:37.475Z,16.57
2019-04-05T14:54:09.783Z,15.85
2019-04-05T14:56:38.060Z,15.13
2019-04-05T14:59:07.311Z,16.60
2019-04-05T15:01:36.528Z,16.15
2019-04-05T15:04:05.682Z,17.40
2019-04-05T15:06:34.747Z,18.87
2019-04-05T15:09:04.545Z,16.85
2019-04-05T15:11:33.696Z,16.75
2019-04-05T15:14:02.792Z,17.12
2019-04-05T15:16:31.923Z,18.35
2019-04-05T15:19:01.042Z,19.10
2019-04-05T15:21:29.974Z,19.12
2019-04-05T15:23:59.071Z,18.00
2019-04-05T15:26:28.209Z,17.67
2019-04-05T15:28:57.387Z,18.32
2019-04-05T15:31:26.694Z,18.80
2019-04-05T15:33:57.791Z,18.70
2019-04-05T15:36:26.665Z,17.87
2019-04-05T15:38:55.834Z,18.30
2019-04-05T15:41:24.749Z,19.57
2019-04-05T15:43:53.697Z,18.85
2019-04-05T15:46:22.690Z,20.55
2019-04-05T15:48:52.432Z,19.90
2019-04-05T15:51:22.527Z,20.32
2019-04-05T15:53:52.415Z,20.82
2019-04-05T15:56:21.624Z,20.20
2019-04-05T15:58:52.399Z,21.02
2019-04-05T16:01:21.478Z,20.30
2019-04-05T16:03:50.490Z,19.65
2019-04-05T16:06:19.688Z,21.30
2019-04-05T16:08:48.692Z,20.60
2019-04-05T16:11:17.862Z,21.23
2019-04-05T16:13:47.027Z,21.97
2019-04-05T16:16:16.163Z,20.12
2019-04-05T16:18:45.267Z,20.23
2019-04-05T16:21:14.425Z,21.15
2019-04-05T16:23:43.512Z,22.77
2019-04-05T16:26:12.683Z,20.48
2019-04-05T16:28:41.610Z,21.35
2019-04-05T16:31:10.666Z,21.73
2019-04-05T16:33:39.751Z,21.48
2019-04-05T16:36:08.917Z,21.02
2019-04-05T16:38:38.007Z,20.77
2019-04-05T16:41:06.994Z,19.95
2019-04-05T16:43:36.095Z,20.30
2019-04-05T16:46:05.153Z,20.02
2019-04-05T16:48:34.165Z,18.80
2019-04-05T16:51:03.286Z,19.85
2019-04-05T16:53:32.491Z,19.60
2019-04-05T16:56:01.646Z,20.55
2019-04-05T16:58:30.778Z,19.27
2019-04-05T17:00:59.934Z,19.45
2019-04-05T17:03:28.913Z,19.95
2019-04-05T17:05:58.087Z,19.70
2019-04-05T17:08:27.079Z,19.57
2019-04-05T17:10:56.185Z,19.92
2019-04-05T17:13:25.283Z,19.62
2019-04-05T17:15:54.290Z,19.73
2019-04-05T17:18:23.329Z,20.72
2019-04-05T17:20:52.350Z,20.90
2019-04-05T17:23:21.415Z,20.52
2019-04-05T17:25:50.493Z,20.68
2019-04-05T17:28:19.646Z,20.55
2019-04-05T17:30:48.675Z,20.37
2019-04-05T17:33:17.664Z,21.07
2019-04-05T17:35:46.795Z,21.68
2019-04-05T17:38:15.723Z,20.27
2019-04-05T17:40:44.807Z,22.22
2019-04-05T17:43:13.951Z,21.37
2019-04-05T17:45:43.019Z,22.62
2019-04-05T17:48:12.034Z,21.02
2019-04-05T17:50:41.188Z,22.05
2019-04-05T17:53:13.235Z,21.12
2019-04-05T17:55:41.751Z,22.10
2019-04-05T17:58:11.633Z,22.82
2019-04-05T18:00:40.862Z,22.75
2019-04-05T18:03:10.216Z,21.48
2019-04-05T18:05:39.577Z,21.45
2019-04-05T18:08:13.853Z,22.42
2019-04-05T18:10:44.051Z,23.77
2019-04-05T18:13:22.527Z,22.85
2019-04-05T18:15:53.088Z,22.02
2019-04-05T18:18:22.448Z,23.05
2019-04-05T18:20:51.607Z,22.48
2019-04-05T18:23:25.315Z,22.62
2019-04-05T18:28:42.918Z,21.90
2019-04-05T18:31:12.279Z,22.00
2019-04-05T18:33:42.160Z,22.77
2019-04-05T18:36:12.036Z,21.80
2019-04-05T18:38:41.728Z,22.58
2019-04-05T18:41:13.239Z,23.77
2019-04-05T18:43:44.239Z,21.95
2019-04-05T18:46:17.244Z,22.65
2019-04-05T18:48:50.027Z,22.82
2019-04-05T18:54:30.466Z,22.35
2019-04-05T18:57:03.156Z,22.20
2019-04-05T18:59:32.989Z,23.62
2019-04-05T19:02:12.224Z,22.05
2019-04-05T19:04:43.953Z,23.47
2019-04-05T19:07:16.720Z,22.52
2019-04-05T19:09:45.939Z,23.98
2019-04-05T19:12:15.638Z,23.18
2019-04-05T19:14:45.099Z,23.35
2019-04-05T19:17:23.873Z,22.07
2019-04-05T19:20:18.289Z,24.30
2019-04-05T19:22:51.070Z,24.20
2019-04-05T19:25:20.629Z,22.82
2019-04-05T19:49:10.360Z,25.25
2019-04-05T19:49:53.678Z,24.60
2019-04-05T19:51:53.256Z,24.60
2019-04-05T19:55:07.650Z,26.73
2019-04-05T19:57:52.429Z,24.25
2019-04-05T20:03:35.122Z,26.73
2019-04-05T20:06:04.442Z,25.90
2019-04-05T20:08:33.684Z,25.45
2019-04-05T20:11:03.213Z,25.97
2019-04-05T20:13:33.169Z,26.20
2019-04-05T20:16:05.627Z,24.92
2019-04-05T20:21:34.702Z,23.45
2019-04-05T20:24:14.407Z,26.80
2019-04-05T20:27:23.657Z,24.63
2019-04-05T20:32:31.587Z,26.00
2019-04-05T20:35:56.695Z,27.98
2019-04-05T20:38:51.457Z,26.07
2019-04-05T20:41:33.931Z,25.30
2019-04-05T20:44:09.638Z,25.27
2019-04-05T20:46:48.948Z,24.47
2019-04-05T20:56:43.588Z,23.60
2019-04-05T20:59:32.798Z,25.50
2019-04-05T21:03:02.011Z,24.55
2019-04-05T21:05:35.141Z,25.43
2019-04-05T21:08:04.504Z,24.12
2019-04-05T21:10:33.914Z,24.25
2019-04-05T21:13:03.443Z,24.70
2019-04-05T21:15:32.731Z,25.25
2019-04-05T21:18:04.292Z,26.10
2019-04-05T21:20:33.738Z,24.37
2019-04-05T21:23:03.109Z,25.40
2019-04-05T21:25:32.596Z,23.50
2019-04-05T21:28:02.025Z,23.75
2019-04-05T21:30:31.436Z,24.50
2019-04-05T21:33:04.665Z,24.00
2019-04-05T21:35:33.851Z,25.08
2019-04-05T21:38:03.022Z,23.27
2019-04-05T21:40:32.127Z,24.95
2019-04-05T21:43:01.156Z,24.98
2019-04-05T21:45:30.354Z,25.32
2019-04-05T21:47:59.430Z,25.17
2019-04-05T21:50:28.670Z,26.05
2019-04-05T21:52:57.753Z,25.27
2019-04-05T21:55:26.995Z,26.00
2019-04-05T21:57:56.081Z,25.10
2019-04-05T22:00:28.674Z,24.92
2019-04-05T22:05:25.941Z,24.82
2019-04-05T22:07:55.049Z,24.92
2019-04-05T22:10:24.306Z,24.37
2019-04-05T22:12:53.357Z,24.92
2019-04-05T22:15:22.444Z,25.25
2019-04-05T22:17:51.559Z,24.12
2019-04-05T22:20:20.693Z,25.65
2019-04-05T22:22:49.707Z,26.00
2019-04-05T22:25:18.787Z,26.30
2019-04-05T22:27:47.871Z,23.90
2019-04-05T22:30:17.038Z,24.50
2019-04-05T22:32:46.175Z,24.63
2019-04-05T22:35:15.230Z,24.27
2019-04-05T22:37:44.338Z,24.85
2019-04-05T22:40:13.671Z,24.60
2019-04-05T22:42:42.879Z,24.40
2019-04-05T22:45:12.259Z,25.15
2019-04-05T22:47:41.381Z,23.90
2019-04-05T22:50:10.472Z,24.60
2019-04-05T22:52:39.567Z,24.15
2019-04-05T22:55:11.679Z,24.50
2019-04-05T22:57:39.647Z,25.23
2019-04-05T23:00:09.309Z,26.00
2019-04-05T23:02:38.484Z,25.08
2019-04-05T23:05:07.857Z,25.95
2019-04-05T23:07:37.002Z,24.50
2019-04-05T23:10:07.165Z,24.43
2019-04-05T23:12:36.258Z,23.92
2019-04-05T23:15:06.068Z,25.05
2019-04-05T23:17:35.086Z,25.52
2019-04-05T23:20:04.751Z,24.72
2019-04-05T23:22:33.906Z,24.98
2019-04-05T23:25:03.005Z,24.18
2019-04-05T23:27:32.121Z,23.98
2019-04-05T23:30:01.150Z,25.80
2019-04-05T23:32:30.202Z,25.05
2019-04-05T23:34:59.164Z,25.23
2019-04-05T23:37:28.130Z,25.65
2019-04-05T23:39:57.130Z,24.37
2019-04-05T23:42:26.385Z,22.73
2019-04-05T23:44:55.438Z,24.40
2019-04-05T23:47:24.438Z,24.00
2019-04-05T23:49:53.643Z,24.12
2019-04-05T23:52:22.763Z,24.82
2019-04-05T23:54:51.877Z,23.92
2019-04-05T23:57:21.060Z,23.62
2019-04-05T23:59:50.147Z,24.67
